Time;durP1;ratioP1;P1;durP2;ratioP2;P2;SDS_P1;SDS_P2;PMS_P1;PMS_P2;Temp;Humidity;BMP_temperature;BMP_pressure;BME280_temperature;BME280_humidity;BME280_pressure;Samples;Min_cycle;Max_cycle;Signal;HPM_P1;HPM_P2
2024/02/20 00:00:43;;;;;;;6.30;3.67;;;;;;;-146.29;100.00;59205.81;5024286;28;20192;-70
2024/02/20 00:03:08;;;;;;;5.53;3.43;;;;;;;-146.29;100.00;59205.81;5025533;28;20729;-69
2024/02/20 00:05:34;;;;;;;4.07;3.27;;;;;;;-146.29;100.00;59205.81;5031010;28;20279;-69
2024/02/20 00:08:02;;;;;;;4.67;3.17;;;;;;;-146.29;100.00;59205.81;5025756;28;20229;-70
2024/02/20 00:10:29;;;;;;;7.57;3.60;;;;;;;-146.29;100.00;59205.81;5028000;28;20216;-71
2024/02/20 00:12:57;;;;;;;5.17;3.33;;;;;;;-146.29;100.00;59205.81;5034784;28;21116;-69
2024/02/20 00:15:22;;;;;;;5.23;3.60;;;;;;;-146.29;100.00;59205.81;5024454;28;20438;-68
2024/02/20 00:17:48;;;;;;;3.57;3.13;;;;;;;-146.29;100.00;59205.81;5025205;28;20928;-71
2024/02/20 00:20:13;;;;;;;5.77;3.43;;;;;;;-146.29;100.00;59205.81;5026046;28;20200;-70
2024/02/20 00:22:39;;;;;;;5.47;3.40;;;;;;;-146.29;100.00;59205.81;5034625;28;20653;-69
2024/02/20 00:25:05;;;;;;;5.47;4.70;;;;;;;-146.29;100.00;59205.81;5029410;28;20180;-71
2024/02/20 00:27:31;;;;;;;4.10;3.70;;;;;;;-146.29;100.00;59205.81;5027907;28;20290;-70
2024/02/20 00:29:57;;;;;;;4.53;3.20;;;;;;;-146.29;100.00;59205.81;5029661;28;20207;-70
2024/02/20 00:32:22;;;;;;;2.90;2.60;;;;;;;-146.29;100.00;59205.81;5043821;28;20425;-69
2024/02/20 00:34:48;;;;;;;3.43;3.03;;;;;;;-146.29;100.00;59205.81;5024392;28;20270;-69
2024/02/20 00:37:14;;;;;;;5.17;3.30;;;;;;;-146.29;100.00;59205.81;5033552;28;20230;-71
2024/02/20 00:39:40;;;;;;;5.00;2.87;;;;;;;-146.29;100.00;59205.81;5033856;28;20267;-70
2024/02/20 00:42:05;;;;;;;3.97;3.10;;;;;;;-146.29;100.00;59205.81;5037371;28;20414;-69
2024/02/20 00:44:31;;;;;;;3.70;2.87;;;;;;;-146.29;100.00;59205.81;5039984;28;20183;-69
2024/02/20 00:46:56;;;;;;;3.33;3.00;;;;;;;-146.29;100.00;59205.81;5030125;28;20208;-70
2024/02/20 00:49:22;;;;;;;7.33;2.77;;;;;;;-146.29;100.00;59205.81;5031266;28;20723;-70
2024/02/20 00:51:47;;;;;;;4.23;2.57;;;;;;;-146.29;100.00;59205.81;5032596;28;20180;-70
2024/02/20 00:54:13;;;;;;;5.30;3.00;;;;;;;-146.29;100.00;59205.81;5032725;28;20310;-70
2024/02/20 00:56:39;;;;;;;2.90;2.57;;;;;;;-146.29;100.00;59205.81;5041678;28;20814;-70
2024/02/20 00:59:04;;;;;;;3.10;2.70;;;;;;;-146.29;100.00;59205.81;5029881;28;20503;-72
2024/02/20 01:01:30;;;;;;;3.00;2.70;;;;;;;-146.29;100.00;59205.81;5034574;28;20282;-70
2024/02/20 01:03:55;;;;;;;3.33;2.60;;;;;;;-146.29;100.00;59205.81;5029691;28;20176;-69
2024/02/20 01:06:21;;;;;;;5.50;3.10;;;;;;;-146.29;100.00;59205.81;5040804;28;20203;-71
2024/02/20 01:08:46;;;;;;;2.93;2.60;;;;;;;-146.29;100.00;59205.81;5032152;28;20187;-70
2024/02/20 01:11:13;;;;;;;3.47;3.00;;;;;;;-146.29;100.00;59205.81;5029748;28;20249;-71
2024/02/20 01:13:38;;;;;;;3.90;3.00;;;;;;;-146.29;100.00;59205.81;5026206;28;20270;-69
2024/02/20 01:16:04;;;;;;;5.93;3.07;;;;;;;-146.29;100.00;59205.81;5038829;28;20534;-69
2024/02/20 01:18:29;;;;;;;6.33;3.80;;;;;;;-146.29;100.00;59205.81;5041150;28;20301;-70
2024/02/20 01:20:55;;;;;;;3.80;3.40;;;;;;;-146.29;100.00;59205.81;5040741;28;20220;-69
2024/02/20 01:23:20;;;;;;;5.03;3.30;;;;;;;-146.29;100.00;59205.81;5043715;28;20175;-70
2024/02/20 01:25:46;;;;;;;5.50;3.30;;;;;;;-146.29;100.00;59205.81;5030761;28;20604;-70
2024/02/20 01:28:11;;;;;;;5.43;2.67;;;;;;;-146.29;100.00;59205.81;5030529;28;20180;-68
2024/02/20 01:30:37;;;;;;;4.33;3.10;;;;;;;-146.29;100.00;59205.81;5030663;28;20211;-70
2024/02/20 01:33:02;;;;;;;4.73;3.37;;;;;;;-146.29;100.00;59205.81;5029742;28;20176;-70
2024/02/20 01:35:28;;;;;;;3.43;2.87;;;;;;;-146.29;100.00;59205.81;5035026;28;20236;-70
2024/02/20 01:37:54;;;;;;;6.60;3.60;;;;;;;-146.29;100.00;59205.81;5034216;28;20602;-70
2024/02/20 01:40:21;;;;;;;4.67;3.13;;;;;;;-146.29;100.00;59205.81;5038405;28;20253;-70
2024/02/20 01:42:56;;;;;;;5.00;3.33;;;;;;;-146.29;100.00;59205.81;5032779;28;20835;-70
2024/02/20 01:45:23;;;;;;;5.23;3.53;;;;;;;-146.29;100.00;59205.81;5039226;28;20418;-70
2024/02/20 01:47:48;;;;;;;11.20;6.13;;;;;;;-146.29;100.00;59205.81;5036379;28;20422;-70
2024/02/20 01:50:14;;;;;;;8.90;5.30;;;;;;;-146.29;100.00;59205.81;5030685;28;20461;-71
2024/02/20 01:52:39;;;;;;;8.40;4.57;;;;;;;-146.29;100.00;59205.81;5031795;28;20176;-70
2024/02/20 01:55:06;;;;;;;5.83;3.83;;;;;;;-146.29;100.00;59205.81;5030089;28;20190;-71
2024/02/20 01:57:32;;;;;;;6.17;3.60;;;;;;;-146.29;100.00;59205.81;5030129;28;20552;-70
2024/02/20 01:59:57;;;;;;;4.20;3.20;;;;;;;-146.29;100.00;59205.81;5028888;28;20438;-71
2024/02/20 02:02:22;;;;;;;7.83;3.10;;;;;;;-146.29;100.00;59205.81;5029374;28;20203;-71
2024/02/20 02:04:48;;;;;;;5.87;3.70;;;;;;;-146.29;100.00;59205.81;5032507;28;20183;-69
2024/02/20 02:07:13;;;;;;;5.23;2.70;;;;;;;-146.29;100.00;59205.81;5037723;28;20322;-69
2024/02/20 02:09:39;;;;;;;5.57;3.10;;;;;;;-146.29;100.00;59205.81;5025060;28;20290;-70
2024/02/20 02:12:04;;;;;;;4.10;3.00;;;;;;;-146.29;100.00;59205.81;5030397;28;20701;-71
2024/02/20 02:14:30;;;;;;;5.80;3.03;;;;;;;-146.29;100.00;59205.81;5031655;28;20195;-70
2024/02/20 02:16:55;;;;;;;3.43;3.13;;;;;;;-146.29;100.00;59205.81;5032431;28;20198;-70
2024/02/20 02:19:21;;;;;;;4.20;3.30;;;;;;;-146.29;100.00;59205.81;5029349;28;20589;-72
2024/02/20 02:21:47;;;;;;;7.07;3.70;;;;;;;-146.29;100.00;59205.81;5031112;28;20267;-71
2024/02/20 02:24:12;;;;;;;4.90;3.07;;;;;;;-146.29;100.00;59205.81;5041845;28;20703;-71
2024/02/20 02:26:38;;;;;;;6.43;3.43;;;;;;;-146.29;100.00;59205.81;5028289;28;20184;-70
2024/02/20 02:29:03;;;;;;;4.33;3.20;;;;;;;-146.29;100.00;59205.81;5037264;28;20298;-70
2024/02/20 02:31:29;;;;;;;7.90;3.60;;;;;;;-146.29;100.00;59205.81;5028447;28;20183;-71
2024/02/20 02:33:56;;;;;;;7.57;3.20;;;;;;;-146.29;100.00;59205.81;5034914;28;20175;-70
2024/02/20 02:36:21;;;;;;;5.70;3.57;;;;;;;-146.29;100.00;59205.81;5033656;28;20472;-69
2024/02/20 02:38:47;;;;;;;7.93;2.93;;;;;;;-146.29;100.00;59205.81;5037541;28;20914;-69
2024/02/20 02:41:12;;;;;;;6.80;3.10;;;;;;;-146.29;100.00;59205.81;5038309;28;20203;-70
2024/02/20 02:43:38;;;;;;;4.87;3.00;;;;;;;-146.29;100.00;59205.81;5035330;28;20581;-70
2024/02/20 02:46:04;;;;;;;6.57;3.30;;;;;;;-146.29;100.00;59205.81;5029669;28;20186;-69
2024/02/20 02:48:29;;;;;;;6.80;3.10;;;;;;;-146.29;100.00;59205.81;5031262;28;20649;-70
2024/02/20 02:50:54;;;;;;;8.57;2.53;;;;;;;-146.29;100.00;59205.81;5031196;28;20220;-70
2024/02/20 02:53:21;;;;;;;6.90;2.80;;;;;;;-146.29;100.00;59205.81;5026974;28;20221;-69
2024/02/20 02:55:47;;;;;;;5.00;2.87;;;;;;;-146.29;100.00;59205.81;5033368;28;20587;-69
2024/02/20 02:58:13;;;;;;;4.73;2.40;;;;;;;-146.29;100.00;59205.81;5031744;28;20434;-69
2024/02/20 03:00:40;;;;;;;7.03;2.80;;;;;;;-146.29;100.00;59205.81;5030130;28;20437;-69
2024/02/20 03:03:05;;;;;;;8.40;3.20;;;;;;;-146.29;100.00;59205.81;5036424;28;20183;-71
2024/02/20 03:05:31;;;;;;;4.17;2.50;;;;;;;-146.29;100.00;59205.81;5029732;28;20418;-69
2024/02/20 03:07:57;;;;;;;5.80;2.40;;;;;;;-146.29;100.00;59205.81;5034261;28;20179;-71
2024/02/20 03:10:24;;;;;;;9.13;2.60;;;;;;;-146.29;100.00;59205.81;5026335;28;20832;-69
2024/02/20 03:12:50;;;;;;;13.47;2.70;;;;;;;-146.29;100.00;59205.81;5035563;28;20273;-69
2024/02/20 03:15:15;;;;;;;8.73;2.30;;;;;;;-146.29;100.00;59205.81;5031874;28;20445;-70
2024/02/20 03:17:44;;;;;;;8.70;2.50;;;;;;;-146.29;100.00;59205.81;5028949;28;20784;-70
2024/02/20 03:20:14;;;;;;;5.13;2.30;;;;;;;-146.29;100.00;59205.81;5028866;28;20840;-70
2024/02/20 03:22:41;;;;;;;7.10;2.53;;;;;;;-146.29;100.00;59205.81;5033540;28;20501;-70
2024/02/20 03:25:07;;;;;;;12.83;3.40;;;;;;;-146.29;100.00;59205.81;5028213;28;20955;-69
2024/02/20 03:27:33;;;;;;;5.83;2.37;;;;;;;-146.29;100.00;59205.81;5029761;28;20968;-70
2024/02/20 03:29:59;;;;;;;11.33;2.70;;;;;;;-146.29;100.00;59205.81;5028062;28;20465;-71
2024/02/20 03:32:25;;;;;;;12.00;3.20;;;;;;;-146.29;100.00;59205.81;5028390;28;20183;-69
2024/02/20 03:34:50;;;;;;;6.00;2.90;;;;;;;-146.29;100.00;59205.81;5028499;28;20183;-69
2024/02/20 03:37:15;;;;;;;4.00;2.40;;;;;;;-146.29;100.00;59205.81;5035447;28;20518;-69
2024/02/20 03:39:41;;;;;;;7.60;2.33;;;;;;;-146.29;100.00;59205.81;5032144;28;20195;-70
2024/02/20 03:42:06;;;;;;;6.80;2.30;;;;;;;-146.29;100.00;59205.81;5030146;28;20229;-69
2024/02/20 03:44:32;;;;;;;5.70;3.60;;;;;;;-146.29;100.00;59205.81;5028275;28;20190;-71
2024/02/20 03:46:57;;;;;;;5.73;3.70;;;;;;;-146.29;100.00;59205.81;5027384;28;20621;-70
2024/02/20 03:49:23;;;;;;;7.63;2.90;;;;;;;-146.29;100.00;59205.81;5031456;28;20286;-69
2024/02/20 03:51:48;;;;;;;5.77;2.70;;;;;;;-146.29;100.00;59205.81;5028470;28;20215;-70
2024/02/20 03:54:13;;;;;;;13.57;3.47;;;;;;;-146.29;100.00;59205.81;5028506;28;20290;-69
2024/02/20 03:56:39;;;;;;;12.07;3.53;;;;;;;-146.29;100.00;59205.81;5030074;28;20183;-69
2024/02/20 03:59:05;;;;;;;12.90;4.80;;;;;;;-146.29;100.00;59205.81;5033995;28;20790;-71
2024/02/20 04:01:30;;;;;;;6.03;2.90;;;;;;;-146.29;100.00;59205.81;5027656;28;20597;-70
2024/02/20 04:03:56;;;;;;;5.37;2.73;;;;;;;-146.29;100.00;59205.81;5028254;28;20203;-68
2024/02/20 04:06:21;;;;;;;6.13;2.90;;;;;;;-146.29;100.00;59205.81;5040270;28;20187;-70
2024/02/20 04:08:46;;;;;;;10.03;2.93;;;;;;;-146.29;100.00;59205.81;5036148;28;20263;-70
2024/02/20 04:11:12;;;;;;;4.37;2.50;;;;;;;-146.29;100.00;59205.81;5040628;28;20290;-69
2024/02/20 04:13:38;;;;;;;9.97;2.67;;;;;;;-146.29;100.00;59205.81;5030203;28;20196;-70
2024/02/20 04:16:04;;;;;;;6.50;2.60;;;;;;;-146.29;100.00;59205.81;5033983;28;20180;-69
2024/02/20 04:18:30;;;;;;;4.50;3.00;;;;;;;-146.29;100.00;59205.81;5033704;28;20663;-69
2024/02/20 04:20:55;;;;;;;8.67;3.57;;;;;;;-146.29;100.00;59205.81;5028271;28;20469;-70
2024/02/20 04:23:21;;;;;;;7.47;3.10;;;;;;;-146.29;100.00;59205.81;5026708;28;20179;-70
2024/02/20 04:25:46;;;;;;;9.23;3.30;;;;;;;-146.29;100.00;59205.81;5029243;28;20580;-70
2024/02/20 04:28:12;;;;;;;11.80;3.50;;;;;;;-146.29;100.00;59205.81;5033192;28;20270;-70
2024/02/20 04:30:44;;;;;;;6.90;2.70;;;;;;;-146.29;100.00;59205.81;5019880;28;20212;-70
2024/02/20 04:33:09;;;;;;;6.47;2.77;;;;;;;-146.29;100.00;59205.81;5027891;28;20822;-70
2024/02/20 04:35:35;;;;;;;11.57;2.80;;;;;;;-146.29;100.00;59205.81;5028799;28;20429;-70
2024/02/20 04:38:00;;;;;;;6.23;2.30;;;;;;;-146.29;100.00;59205.81;5035585;28;20663;-71
2024/02/20 04:40:26;;;;;;;11.00;3.07;;;;;;;-146.29;100.00;59205.81;5009719;28;20262;-73
2024/02/20 04:42:52;;;;;;;8.03;2.97;;;;;;;-146.29;100.00;59205.81;5036230;28;20208;-69
2024/02/20 04:45:18;;;;;;;5.83;2.13;;;;;;;-146.29;100.00;59205.81;5044194;28;20171;-70
2024/02/20 04:47:43;;;;;;;4.60;2.70;;;;;;;-146.29;100.00;59205.81;5044632;28;20187;-69
2024/02/20 04:50:09;;;;;;;14.93;3.80;;;;;;;-146.29;100.00;59205.81;5025362;28;20464;-71
2024/02/20 04:52:34;;;;;;;8.40;2.67;;;;;;;-146.29;100.00;59205.81;5028026;28;20180;-70
2024/02/20 04:55:02;;;;;;;6.50;2.60;;;;;;;-146.29;100.00;59205.81;5038673;28;20179;-70
2024/02/20 04:57:28;;;;;;;11.20;2.80;;;;;;;-146.29;100.00;59205.81;5042875;28;20261;-71
2024/02/20 04:59:55;;;;;;;9.33;2.60;;;;;;;-146.29;100.00;59205.81;5022724;28;20469;-69
2024/02/20 05:02:20;;;;;;;19.93;7.00;;;;;;;-146.29;100.00;59205.81;5031551;28;20411;-69
2024/02/20 05:04:46;;;;;;;13.47;4.30;;;;;;;-146.29;100.00;59205.81;5029867;28;20433;-68
2024/02/20 05:07:11;;;;;;;17.70;3.67;;;;;;;-146.29;100.00;59205.81;5028933;28;20202;-69
2024/02/20 05:09:37;;;;;;;16.80;3.23;;;;;;;-146.29;100.00;59205.81;5030000;28;20211;-70
2024/02/20 05:12:03;;;;;;;5.27;2.50;;;;;;;-146.29;100.00;59205.81;5032071;28;20270;-71
2024/02/20 05:14:29;;;;;;;7.97;2.40;;;;;;;-146.29;100.00;59205.81;5034286;28;20287;-69
2024/02/20 05:16:54;;;;;;;6.93;2.90;;;;;;;-146.29;100.00;59205.81;5032524;28;20505;-69
2024/02/20 05:19:20;;;;;;;9.90;3.10;;;;;;;-146.29;100.00;59205.81;5030201;28;20317;-71
2024/02/20 05:21:45;;;;;;;7.60;2.90;;;;;;;-146.29;100.00;59205.81;5042512;28;20273;-69
2024/02/20 05:24:11;;;;;;;9.87;2.50;;;;;;;-146.29;100.00;59205.81;5030666;28;20172;-69
2024/02/20 05:26:36;;;;;;;11.47;2.87;;;;;;;-146.29;100.00;59205.81;5033193;28;20253;-70
2024/02/20 05:29:01;;;;;;;12.60;2.50;;;;;;;-146.29;100.00;59205.81;5030022;28;20183;-69
2024/02/20 05:31:28;;;;;;;6.70;2.73;;;;;;;-146.29;100.00;59205.81;5032000;28;20184;-70
2024/02/20 05:33:58;;;;;;;6.17;2.43;;;;;;;-146.29;100.00;59205.81;5039926;28;20187;-70
2024/02/20 05:36:29;;;;;;;11.90;2.77;;;;;;;-146.29;100.00;59205.81;5037108;28;20923;-68
2024/02/20 05:38:59;;;;;;;9.63;2.33;;;;;;;-146.29;100.00;59205.81;5040864;28;20415;-68
2024/02/20 05:41:26;;;;;;;8.00;2.73;;;;;;;-146.29;100.00;59205.81;5031664;28;20891;-69
2024/02/20 05:43:57;;;;;;;8.80;2.77;;;;;;;-146.29;100.00;59205.81;5032513;28;20442;-68
2024/02/20 05:46:25;;;;;;;10.67;2.50;;;;;;;-146.29;100.00;59205.81;5036631;28;20949;-69
2024/02/20 05:48:50;;;;;;;10.57;2.60;;;;;;;-146.29;100.00;59205.81;5035100;28;20849;-69
2024/02/20 05:51:16;;;;;;;8.43;2.60;;;;;;;-146.29;100.00;59205.81;5035137;28;20469;-71
2024/02/20 05:53:42;;;;;;;6.63;2.03;;;;;;;-146.29;100.00;59205.81;5041687;28;20184;-68
2024/02/20 05:56:09;;;;;;;10.10;2.93;;;;;;;-146.29;100.00;59205.81;5029697;28;20893;-69
2024/02/20 05:58:34;;;;;;;14.90;3.27;;;;;;;-146.29;100.00;59205.81;5041770;28;20274;-70
2024/02/20 06:01:00;;;;;;;7.13;2.60;;;;;;;-146.29;100.00;59205.81;5030525;28;21043;-69
2024/02/20 06:03:25;;;;;;;26.83;3.20;;;;;;;-146.29;100.00;59205.81;5028665;28;20331;-69
2024/02/20 06:05:51;;;;;;;8.37;2.67;;;;;;;-146.29;100.00;59205.81;5037226;28;20179;-69
2024/02/20 06:08:16;;;;;;;9.00;2.10;;;;;;;-146.29;100.00;59205.81;5029555;28;20267;-69
2024/02/20 06:10:42;;;;;;;15.10;2.63;;;;;;;-146.29;100.00;59205.81;5036455;28;20214;-69
2024/02/20 06:13:07;;;;;;;15.40;2.47;;;;;;;-146.29;100.00;59205.81;5034021;28;20202;-68
2024/02/20 06:15:32;;;;;;;11.40;2.77;;;;;;;-146.29;100.00;59205.81;5044387;28;20232;-70
2024/02/20 06:17:58;;;;;;;9.17;2.60;;;;;;;-146.29;100.00;59205.81;5031639;28;20591;-69
2024/02/20 06:20:23;;;;;;;9.73;2.10;;;;;;;-146.29;100.00;59205.81;5034276;28;20227;-69
2024/02/20 06:22:49;;;;;;;9.90;2.40;;;;;;;-146.29;100.00;59205.81;5029894;28;20184;-69
2024/02/20 06:25:15;;;;;;;12.53;3.43;;;;;;;-146.29;100.00;59205.81;5034947;28;20644;-70
2024/02/20 06:27:44;;;;;;;9.47;2.00;;;;;;;-146.29;100.00;59205.81;5039835;28;20186;-70
2024/02/20 06:30:13;;;;;;;6.33;2.47;;;;;;;-146.29;100.00;59205.81;5038354;28;20485;-69
2024/02/20 06:32:39;;;;;;;8.30;3.00;;;;;;;-146.29;100.00;59205.81;5031660;28;20426;-69
2024/02/20 06:35:06;;;;;;;11.67;2.83;;;;;;;-146.29;100.00;59205.81;5035693;28;20951;-69
2024/02/20 06:37:31;;;;;;;9.57;2.03;;;;;;;-146.29;100.00;59205.81;5036619;28;20421;-69
2024/02/20 06:39:57;;;;;;;11.57;2.40;;;;;;;-146.29;100.00;59205.81;5028443;28;22029;-69
2024/02/20 06:42:22;;;;;;;14.57;3.20;;;;;;;-146.29;100.00;59205.81;5030239;28;20413;-69
2024/02/20 06:44:48;;;;;;;10.73;2.63;;;;;;;-146.29;100.00;59205.81;5028989;28;20202;-70
2024/02/20 06:47:14;;;;;;;15.23;2.97;;;;;;;-146.29;100.00;59205.81;5028888;28;20218;-68
2024/02/20 06:49:39;;;;;;;15.77;2.97;;;;;;;-146.29;100.00;59205.81;5035582;28;20305;-71
2024/02/20 06:52:06;;;;;;;7.63;2.27;;;;;;;-146.29;100.00;59205.81;5031787;28;20577;-70
2024/02/20 06:54:32;;;;;;;7.87;2.40;;;;;;;-146.29;100.00;59205.81;5036176;28;20267;-71
2024/02/20 06:56:57;;;;;;;12.20;2.60;;;;;;;-146.29;100.00;59205.81;5037276;28;20543;-69
2024/02/20 06:59:23;;;;;;;10.30;2.70;;;;;;;-146.29;100.00;59205.81;5029487;28;21076;-69
2024/02/20 07:01:48;;;;;;;10.00;2.93;;;;;;;-146.29;100.00;59205.81;5036439;28;20270;-70
2024/02/20 07:04:14;;;;;;;11.17;2.77;;;;;;;-146.29;100.00;59205.81;5030462;28;20180;-68
2024/02/20 07:06:39;;;;;;;9.87;3.30;;;;;;;-146.29;100.00;59205.81;5028779;28;20183;-69
2024/02/20 07:09:05;;;;;;;5.87;2.17;;;;;;;-146.29;100.00;59205.81;5028012;28;20207;-68
2024/02/20 07:11:30;;;;;;;16.70;3.23;;;;;;;-146.29;100.00;59205.81;5034721;28;20190;-71
2024/02/20 07:13:56;;;;;;;13.60;2.77;;;;;;;-146.29;100.00;59205.81;5033355;28;20199;-69
2024/02/20 07:16:21;;;;;;;10.07;2.50;;;;;;;-146.29;100.00;59205.81;5028328;28;20180;-70
2024/02/20 07:18:47;;;;;;;21.37;3.50;;;;;;;-146.29;100.00;59205.81;5027798;28;20678;-70
2024/02/20 07:21:12;;;;;;;10.10;3.00;;;;;;;-146.29;100.00;59205.81;5038004;28;20648;-69
2024/02/20 07:23:37;;;;;;;16.73;3.30;;;;;;;-146.29;100.00;59205.81;5030556;28;20266;-69
2024/02/20 07:26:03;;;;;;;14.13;3.20;;;;;;;-146.29;100.00;59205.81;5032612;28;20259;-68
2024/02/20 07:28:28;;;;;;;13.00;3.07;;;;;;;-146.29;100.00;59205.81;5027235;28;20195;-68
2024/02/20 07:30:54;;;;;;;14.40;2.67;;;;;;;-146.29;100.00;59205.81;5033504;28;20239;-69
2024/02/20 07:33:19;;;;;;;8.33;2.70;;;;;;;-146.29;100.00;59205.81;5027667;28;20179;-68
2024/02/20 07:35:45;;;;;;;9.40;2.50;;;;;;;-146.29;100.00;59205.81;5036556;28;20716;-69
2024/02/20 07:38:11;;;;;;;9.93;2.20;;;;;;;-146.29;100.00;59205.81;5027906;28;20175;-68
2024/02/20 07:40:39;;;;;;;11.67;2.40;;;;;;;-146.29;100.00;59205.81;5029492;28;20430;-69
2024/02/20 07:43:04;;;;;;;6.67;2.20;;;;;;;-146.29;100.00;59205.81;5032790;28;20191;-70
2024/02/20 07:45:30;;;;;;;14.30;3.13;;;;;;;-146.29;100.00;59205.81;5027106;28;20918;-69
2024/02/20 07:47:55;;;;;;;13.67;2.83;;;;;;;-146.29;100.00;59205.81;5036352;28;20191;-69
2024/02/20 07:50:20;;;;;;;11.70;3.17;;;;;;;-146.29;100.00;59205.81;5035420;28;20298;-69
2024/02/20 07:52:46;;;;;;;10.07;2.67;;;;;;;-146.29;100.00;59205.81;5028008;28;20275;-69
2024/02/20 07:55:12;;;;;;;15.80;2.57;;;;;;;-146.29;100.00;59205.81;5034772;28;20205;-68
2024/02/20 07:57:37;;;;;;;10.23;2.60;;;;;;;-146.29;100.00;59205.81;5031952;28;20484;-69
2024/02/20 08:00:06;;;;;;;13.27;2.60;;;;;;;-146.29;100.00;59205.81;5038376;28;20210;-69
2024/02/20 08:02:32;;;;;;;9.70;2.60;;;;;;;-146.29;100.00;59205.81;5030839;28;20183;-71
2024/02/20 08:04:57;;;;;;;10.93;2.93;;;;;;;-146.29;100.00;59205.81;5036210;28;20562;-70
2024/02/20 08:07:22;;;;;;;13.30;3.50;;;;;;;-146.29;100.00;59205.81;5027970;28;20167;-68
2024/02/20 08:09:48;;;;;;;12.73;2.63;;;;;;;-146.29;100.00;59205.81;5028955;28;20234;-70
2024/02/20 08:12:14;;;;;;;8.13;2.40;;;;;;;-146.29;100.00;59205.81;5044997;28;20176;-70
2024/02/20 08:14:40;;;;;;;9.10;2.60;;;;;;;-146.29;100.00;59205.81;5028349;28;20192;-70
2024/02/20 08:17:06;;;;;;;10.43;2.70;;;;;;;-146.29;100.00;59205.81;5035524;28;20421;-69
2024/02/20 08:19:31;;;;;;;7.60;2.47;;;;;;;-146.29;100.00;59205.81;5027755;28;20188;-72
2024/02/20 08:21:57;;;;;;;13.37;3.40;;;;;;;-146.29;100.00;59205.81;5030697;28;20812;-71
2024/02/20 08:24:22;;;;;;;13.03;3.30;;;;;;;-146.29;100.00;59205.81;5027537;28;20318;-71
2024/02/20 08:26:49;;;;;;;17.77;2.93;;;;;;;-146.29;100.00;59205.81;5027225;28;20184;-71
2024/02/20 08:29:14;;;;;;;11.23;2.70;;;;;;;-146.29;100.00;59205.81;5034945;28;20183;-71
2024/02/20 08:31:42;;;;;;;20.30;4.00;;;;;;;-146.29;100.00;59205.81;5029151;28;20430;-72
2024/02/20 08:34:07;;;;;;;15.27;3.20;;;;;;;-146.29;100.00;59205.81;5027312;28;20172;-71
2024/02/20 08:36:33;;;;;;;10.00;2.50;;;;;;;-146.29;100.00;59205.81;5027603;28;21272;-71
2024/02/20 08:38:59;;;;;;;12.83;3.47;;;;;;;-146.29;100.00;59205.81;5025528;28;20192;-72
2024/02/20 08:41:25;;;;;;;12.30;2.70;;;;;;;-146.29;100.00;59205.81;5031319;28;20989;-73
2024/02/20 08:43:51;;;;;;;10.40;3.00;;;;;;;-146.29;100.00;59205.81;5039727;28;20836;-72
2024/02/20 08:46:17;;;;;;;8.67;2.40;;;;;;;-146.29;100.00;59205.81;5024652;28;20207;-73
2024/02/20 08:48:42;;;;;;;8.10;2.67;;;;;;;-146.29;100.00;59205.81;5030142;28;20483;-72
2024/02/20 08:51:08;;;;;;;13.70;2.77;;;;;;;-146.29;100.00;59205.81;5032541;28;20454;-71
2024/02/20 08:53:33;;;;;;;18.97;3.37;;;;;;;-146.29;100.00;59205.81;5031762;28;20266;-71
2024/02/20 08:55:59;;;;;;;11.97;3.77;;;;;;;-146.29;100.00;59205.81;5030505;28;20254;-72
2024/02/20 08:58:25;;;;;;;12.20;3.07;;;;;;;-146.29;100.00;59205.81;5031113;28;20188;-72
2024/02/20 09:00:50;;;;;;;11.17;3.20;;;;;;;-146.29;100.00;59205.81;5030852;28;20196;-71
2024/02/20 09:03:16;;;;;;;12.47;3.13;;;;;;;-146.29;100.00;59205.81;5033132;28;20410;-71
2024/02/20 09:05:42;;;;;;;9.77;3.50;;;;;;;-146.29;100.00;59205.81;5030147;28;20186;-72
2024/02/20 09:08:07;;;;;;;12.90;3.20;;;;;;;-146.29;100.00;59205.81;5038582;28;20287;-71
2024/02/20 09:10:33;;;;;;;15.40;3.20;;;;;;;-146.29;100.00;59205.81;5035208;28;20210;-72
2024/02/20 09:12:59;;;;;;;11.87;3.20;;;;;;;-146.29;100.00;59205.81;5030953;28;20802;-72
2024/02/20 09:15:24;;;;;;;9.53;2.97;;;;;;;-146.29;100.00;59205.81;5034813;28;20234;-72
2024/02/20 09:17:50;;;;;;;8.47;2.93;;;;;;;-146.29;100.00;59205.81;5041753;28;20453;-72
2024/02/20 09:20:15;;;;;;;12.50;3.00;;;;;;;-146.29;100.00;59205.81;5040663;28;20220;-72
2024/02/20 09:22:41;;;;;;;12.37;3.00;;;;;;;-146.29;100.00;59205.81;5032594;28;20187;-72
2024/02/20 09:25:09;;;;;;;14.27;3.20;;;;;;;-146.29;100.00;59205.81;5031200;28;20196;-72
2024/02/20 09:27:37;;;;;;;10.63;3.33;;;;;;;-146.29;100.00;59205.81;5043037;28;20183;-71
2024/02/20 09:30:05;;;;;;;15.27;3.57;;;;;;;-146.29;100.00;59205.81;5038493;28;20465;-72
2024/02/20 09:32:31;;;;;;;15.27;3.83;;;;;;;-146.29;100.00;59205.81;5030314;28;20440;-71
2024/02/20 09:34:57;;;;;;;11.47;3.37;;;;;;;-146.29;100.00;59205.81;5034448;28;20423;-72
2024/02/20 09:37:23;;;;;;;16.90;3.70;;;;;;;-146.29;100.00;59205.81;5038544;28;20939;-72
2024/02/20 09:39:48;;;;;;;9.63;3.57;;;;;;;-146.29;100.00;59205.81;5038498;28;20206;-72
2024/02/20 09:42:24;;;;;;;13.73;3.43;;;;;;;-146.29;100.00;59205.81;5033831;28;20271;-72
2024/02/20 09:44:51;;;;;;;13.57;3.20;;;;;;;-146.29;100.00;59205.81;5028854;28;20241;-72
2024/02/20 09:47:18;;;;;;;13.77;3.20;;;;;;;-146.29;100.00;59205.81;5037828;28;20435;-73
2024/02/20 09:49:44;;;;;;;15.90;3.63;;;;;;;-146.29;100.00;59205.81;5031265;28;20466;-73
2024/02/20 09:52:11;;;;;;;12.17;3.40;;;;;;;-146.29;100.00;59205.81;5028851;28;20411;-72
2024/02/20 09:54:36;;;;;;;15.73;3.57;;;;;;;-146.29;100.00;59205.81;5028072;28;20184;-72
2024/02/20 09:57:02;;;;;;;11.70;3.80;;;;;;;-146.29;100.00;59205.81;5029748;28;20500;-71
2024/02/20 09:59:28;;;;;;;15.90;3.67;;;;;;;-146.29;100.00;59205.81;5034940;28;20180;-72
2024/02/20 10:01:55;;;;;;;13.97;3.70;;;;;;;-146.29;100.00;59205.81;5029634;28;20180;-72
2024/02/20 10:04:22;;;;;;;19.20;3.80;;;;;;;-146.29;100.00;59205.81;5027628;28;20188;-72
2024/02/20 10:06:47;;;;;;;13.17;3.30;;;;;;;-146.29;100.00;59205.81;5012057;28;20418;-72
2024/02/20 10:09:14;;;;;;;13.07;3.17;;;;;;;-146.29;100.00;59205.81;5029218;28;20453;-71
2024/02/20 10:11:40;;;;;;;13.10;3.90;;;;;;;-146.29;100.00;59205.81;5031668;28;20206;-71
2024/02/20 10:14:06;;;;;;;12.80;3.23;;;;;;;-146.29;100.00;59205.81;5030881;28;20438;-72
2024/02/20 10:16:32;;;;;;;13.03;3.33;;;;;;;-146.29;100.00;59205.81;5029476;28;20484;-73
2024/02/20 10:19:01;;;;;;;13.57;3.40;;;;;;;-146.29;100.00;59205.81;5028547;28;20975;-72
2024/02/20 10:21:27;;;;;;;14.77;3.03;;;;;;;-146.29;100.00;59205.81;5028006;28;20208;-72
2024/02/20 10:24:06;;;;;;;11.80;2.83;;;;;;;-146.29;100.00;59205.81;5038256;28;20430;-72
2024/02/20 10:26:37;;;;;;;12.77;3.07;;;;;;;-146.29;100.00;59205.81;5032270;28;20429;-72
2024/02/20 10:29:03;;;;;;;13.43;3.53;;;;;;;-146.29;100.00;59205.81;5037479;28;20445;-74
2024/02/20 10:31:30;;;;;;;10.93;3.50;;;;;;;-146.29;100.00;59205.81;5036276;28;21208;-73
2024/02/20 10:33:56;;;;;;;14.47;3.63;;;;;;;-146.29;100.00;59205.81;5028941;28;20944;-74
2024/02/20 10:36:22;;;;;;;11.93;2.67;;;;;;;-146.29;100.00;59205.81;5032741;28;20430;-75
2024/02/20 10:38:49;;;;;;;11.67;3.17;;;;;;;-146.29;100.00;59205.81;5028148;28;21230;-73
2024/02/20 10:41:15;;;;;;;9.63;2.77;;;;;;;-146.29;100.00;59205.81;5032512;28;20202;-72
2024/02/20 10:43:45;;;;;;;13.47;2.67;;;;;;;-146.29;100.00;59205.81;5028810;28;20423;-72
2024/02/20 10:46:12;;;;;;;15.20;2.90;;;;;;;-146.29;100.00;59205.81;5029040;28;20183;-71
2024/02/20 10:48:38;;;;;;;14.87;3.13;;;;;;;-146.29;100.00;59205.81;5029101;28;20425;-72
2024/02/20 10:51:04;;;;;;;6.43;2.37;;;;;;;-146.29;100.00;59205.81;5031121;28;20557;-72
2024/02/20 10:53:30;;;;;;;10.90;3.10;;;;;;;-146.29;100.00;59205.81;5029358;28;20453;-72
2024/02/20 10:55:58;;;;;;;13.30;2.67;;;;;;;-146.29;100.00;59205.81;5028898;28;20172;-72
2024/02/20 10:58:25;;;;;;;10.43;3.23;;;;;;;-146.29;100.00;59205.81;5036648;28;20465;-72
2024/02/20 11:00:50;;;;;;;8.93;3.03;;;;;;;-146.29;100.00;59205.81;5027875;28;21126;-72